createdAt,value
2023-12-23T00:01:32.053Z,0.80
2023-12-23T00:03:35.199Z,0.97
2023-12-23T00:05:37.445Z,0.70
2023-12-23T00:07:40.665Z,0.40
2023-12-23T00:09:43.885Z,0.63
2023-12-23T00:11:48.500Z,0.53
2023-12-23T00:13:51.713Z,0.50
2023-12-23T00:15:54.841Z,0.60
2023-12-23T00:17:58.731Z,0.80
2023-12-23T00:20:02.528Z,0.73
2023-12-23T00:22:06.059Z,0.70
2023-12-23T00:24:09.634Z,0.40
2023-12-23T00:26:12.768Z,0.87
2023-12-23T00:28:17.477Z,0.83
2023-12-23T00:30:20.664Z,0.70
2023-12-23T00:32:23.771Z,0.90
2023-12-23T00:34:27.148Z,0.80
2023-12-23T00:36:30.235Z,0.70
2023-12-23T00:38:32.438Z,0.87
2023-12-23T00:40:35.554Z,1.10
2023-12-23T00:42:38.250Z,0.70
2023-12-23T00:44:42.767Z,0.90
2023-12-23T00:46:45.188Z,0.83
2023-12-23T00:48:48.384Z,0.97
2023-12-23T00:50:51.854Z,0.90
2023-12-23T00:52:55.008Z,0.80
2023-12-23T00:54:57.166Z,0.83
2023-12-23T00:57:00.360Z,0.90
2023-12-23T00:59:03.489Z,0.80
2023-12-23T01:01:08.054Z,1.03
2023-12-23T01:03:11.220Z,1.30
2023-12-23T01:05:14.478Z,1.10
2023-12-23T01:07:17.661Z,0.73
2023-12-23T01:09:20.787Z,0.80
2023-12-23T01:11:23.959Z,1.10
2023-12-23T01:13:27.065Z,1.00
2023-12-23T01:15:29.603Z,1.07
2023-12-23T01:17:35.242Z,0.70
2023-12-23T01:19:38.576Z,0.70
2023-12-23T01:21:42.094Z,0.80
2023-12-23T01:23:45.196Z,0.90
2023-12-23T01:25:47.635Z,0.60
2023-12-23T01:27:51.157Z,1.10
2023-12-23T01:29:54.461Z,0.77
2023-12-23T01:31:57.901Z,0.90
2023-12-23T01:34:01.784Z,1.07
2023-12-23T01:36:06.677Z,0.90
2023-12-23T01:38:09.854Z,1.03
2023-12-23T01:40:13.295Z,1.07
2023-12-23T01:42:15.547Z,0.80
2023-12-23T01:44:18.680Z,1.10
2023-12-23T01:46:21.846Z,1.00
2023-12-23T01:48:25.760Z,0.90
2023-12-23T01:50:30.628Z,1.00
2023-12-23T01:52:34.519Z,1.10
2023-12-23T01:54:37.904Z,1.00
2023-12-23T01:56:41.008Z,0.80
2023-12-23T01:58:44.165Z,1.13
2023-12-23T02:00:47.349Z,1.17
2023-12-23T02:02:50.962Z,1.00
2023-12-23T02:04:54.494Z,1.10
2023-12-23T02:06:58.914Z,1.07
2023-12-23T02:09:02.974Z,1.00
2023-12-23T02:11:07.692Z,0.90
2023-12-23T02:13:16.970Z,1.13
2023-12-23T02:15:20.219Z,0.80
2023-12-23T02:17:23.539Z,1.03
2023-12-23T02:19:26.653Z,1.13
2023-12-23T02:21:31.101Z,0.90
2023-12-23T02:23:34.312Z,1.00
2023-12-23T02:25:37.966Z,0.80
2023-12-23T02:27:43.115Z,1.00
2023-12-23T02:29:47.443Z,0.77
2023-12-23T02:31:50.840Z,0.83
2023-12-23T02:33:54.102Z,1.13
2023-12-23T02:35:57.213Z,0.87
2023-12-23T02:38:01.698Z,0.87
2023-12-23T02:40:04.957Z,1.07
2023-12-23T02:42:08.458Z,0.80
2023-12-23T02:44:11.554Z,1.00
2023-12-23T02:46:14.667Z,1.00
2023-12-23T02:48:17.901Z,0.90
2023-12-23T02:50:21.096Z,1.10
2023-12-23T02:52:24.222Z,1.07
2023-12-23T02:54:28.774Z,0.90
2023-12-23T02:56:32.055Z,0.80
2023-12-23T02:58:35.188Z,1.00
2023-12-23T03:00:38.549Z,1.00
2023-12-23T03:02:41.652Z,0.90
2023-12-23T03:04:44.798Z,0.73
2023-12-23T03:06:49.053Z,0.77
2023-12-23T03:08:52.153Z,1.10
2023-12-23T03:10:56.689Z,0.90
2023-12-23T03:12:59.762Z,1.10
2023-12-23T03:15:02.035Z,0.90
2023-12-23T03:17:05.606Z,0.80
2023-12-23T03:19:08.821Z,1.10
2023-12-23T03:21:11.044Z,0.90
2023-12-23T03:23:14.202Z,1.20
2023-12-23T03:25:16.542Z,0.83
2023-12-23T03:27:20.991Z,0.93
2023-12-23T03:29:24.248Z,1.20
2023-12-23T03:31:27.514Z,0.93
2023-12-23T03:33:30.683Z,1.10
2023-12-23T03:35:33.226Z,1.03
2023-12-23T03:37:36.404Z,1.10
2023-12-23T03:39:39.990Z,1.10
2023-12-23T03:41:43.066Z,1.10
2023-12-23T03:43:46.682Z,1.37
2023-12-23T03:45:49.787Z,1.10
2023-12-23T03:47:52.926Z,1.23
2023-12-23T03:49:56.060Z,1.40
2023-12-23T03:51:59.253Z,1.40
2023-12-23T03:54:02.378Z,1.40
2023-12-23T03:56:04.702Z,1.00
2023-12-23T03:58:07.813Z,1.13
2023-12-23T04:00:13.254Z,1.00
2023-12-23T04:02:16.414Z,1.23
2023-12-23T04:04:21.316Z,1.30
2023-12-23T04:06:23.486Z,1.27
2023-12-23T04:08:26.676Z,1.50
2023-12-23T04:10:29.749Z,1.20
2023-12-23T04:12:32.856Z,1.40
2023-12-23T04:14:38.316Z,1.60
2023-12-23T04:16:43.624Z,1.70
2023-12-23T04:18:46.803Z,1.40
2023-12-23T04:20:52.959Z,1.70
2023-12-23T04:22:56.065Z,1.50
2023-12-23T04:24:59.176Z,1.60
2023-12-23T04:27:02.291Z,1.60
2023-12-23T04:29:05.417Z,2.00
2023-12-23T04:31:08.862Z,1.87
2023-12-23T04:33:13.480Z,1.73
2023-12-23T04:35:15.785Z,1.90
2023-12-23T04:37:19.321Z,2.50
2023-12-23T04:39:21.475Z,2.57
2023-12-23T04:41:24.603Z,2.77
2023-12-23T04:43:26.747Z,2.50
2023-12-23T04:45:29.883Z,3.10
2023-12-23T04:47:33.116Z,2.70
2023-12-23T04:49:37.639Z,2.70
2023-12-23T04:51:40.911Z,2.60
2023-12-23T04:53:44.418Z,3.10
2023-12-23T04:55:49.269Z,2.83
2023-12-23T04:57:52.567Z,3.17
2023-12-23T04:59:54.703Z,3.57
2023-12-23T05:01:57.973Z,3.30
2023-12-23T05:04:01.160Z,4.13
2023-12-23T05:06:05.758Z,3.63
2023-12-23T05:08:09.236Z,3.67
2023-12-23T05:10:11.411Z,3.90
2023-12-23T05:12:14.917Z,3.87
2023-12-23T05:14:18.119Z,3.93
2023-12-23T05:16:21.284Z,3.47
2023-12-23T05:18:24.422Z,3.80
2023-12-23T05:20:27.666Z,4.13
2023-12-23T05:22:31.198Z,4.07
2023-12-23T05:24:34.324Z,3.43
2023-12-23T05:26:37.591Z,4.10
2023-12-23T05:28:40.795Z,4.10
2023-12-23T05:30:44.044Z,3.83
2023-12-23T05:32:47.435Z,3.77
2023-12-23T05:34:50.865Z,3.80
2023-12-23T05:36:53.993Z,3.40
2023-12-23T05:38:58.447Z,3.40
2023-12-23T05:41:02.796Z,3.87
2023-12-23T05:43:06.120Z,3.43
2023-12-23T05:45:09.697Z,3.60
2023-12-23T05:47:13.321Z,3.93
2023-12-23T05:49:16.487Z,3.23
2023-12-23T05:51:19.724Z,3.80
2023-12-23T05:53:22.049Z,3.37
2023-12-23T05:55:27.060Z,3.57
2023-12-23T05:57:29.255Z,3.43
2023-12-23T05:59:33.430Z,3.23
2023-12-23T06:01:36.518Z,3.40
2023-12-23T06:03:39.662Z,3.50
2023-12-23T06:05:42.953Z,3.13
2023-12-23T06:07:46.659Z,2.97
2023-12-23T06:09:49.757Z,3.30
2023-12-23T06:11:54.418Z,2.80
2023-12-23T06:13:57.579Z,3.07
2023-12-23T06:16:00.688Z,3.03
2023-12-23T06:18:03.886Z,2.60
2023-12-23T06:20:07.705Z,2.70
2023-12-23T06:22:10.901Z,2.77
2023-12-23T06:24:13.137Z,2.73
2023-12-23T06:26:16.408Z,2.40
2023-12-23T06:28:20.860Z,2.90
2023-12-23T06:30:24.022Z,2.30
2023-12-23T06:32:27.390Z,2.80
2023-12-23T06:34:30.555Z,2.83
2023-12-23T06:36:33.694Z,3.20
2023-12-23T06:38:36.802Z,3.13
2023-12-23T06:40:39.971Z,1.97
2023-12-23T06:42:43.087Z,2.40
2023-12-23T06:44:47.606Z,2.40
2023-12-23T06:46:52.678Z,2.37
2023-12-23T06:48:54.977Z,2.07
2023-12-23T06:50:58.212Z,2.47
2023-12-23T06:53:01.336Z,2.17
2023-12-23T06:55:04.508Z,2.30
2023-12-23T06:57:07.666Z,2.10
2023-12-23T06:59:13.831Z,2.23
2023-12-23T07:01:18.318Z,2.57
2023-12-23T07:03:21.433Z,2.67
2023-12-23T07:05:24.702Z,2.60
2023-12-23T07:07:27.846Z,2.23
2023-12-23T07:09:30.922Z,2.53
2023-12-23T07:11:34.027Z,2.87
2023-12-23T07:13:36.217Z,3.50
2023-12-23T07:15:40.116Z,2.27
2023-12-23T07:17:44.816Z,3.10
2023-12-23T07:19:48.055Z,2.20
2023-12-23T07:21:54.284Z,2.33
2023-12-23T07:23:57.390Z,2.20
2023-12-23T07:26:00.528Z,2.10
2023-12-23T07:28:03.757Z,2.27
2023-12-23T07:30:07.389Z,2.07
2023-12-23T07:32:09.844Z,2.53
2023-12-23T07:34:14.349Z,2.00
2023-12-23T07:36:17.561Z,2.40
2023-12-23T07:38:20.695Z,2.17
2023-12-23T07:40:25.853Z,6.17
2023-12-23T07:42:29.329Z,3.10
2023-12-23T07:44:32.643Z,2.20
2023-12-23T07:46:34.795Z,1.80
2023-12-23T07:48:38.123Z,3.13
2023-12-23T07:50:42.711Z,2.30
2023-12-23T07:52:45.977Z,10.23
2023-12-23T07:54:49.620Z,2.00
2023-12-23T07:56:52.707Z,2.03
2023-12-23T07:58:58.859Z,1.80
2023-12-23T08:01:04.185Z,2.90
2023-12-23T08:03:06.632Z,1.87
2023-12-23T08:05:10.626Z,1.90
2023-12-23T08:07:15.818Z,1.53
2023-12-23T08:09:17.971Z,1.50
2023-12-23T08:11:21.181Z,1.40
2023-12-23T08:13:24.802Z,1.70
2023-12-23T08:15:28.149Z,1.40
2023-12-23T08:17:31.360Z,2.07
2023-12-23T08:19:34.512Z,1.70
2023-12-23T08:21:37.717Z,1.60
2023-12-23T08:23:42.307Z,1.50
2023-12-23T08:25:45.209Z,1.70
2023-12-23T08:27:48.993Z,1.87
2023-12-23T08:29:52.549Z,1.73
2023-12-23T08:31:54.694Z,1.70
2023-12-23T08:33:57.864Z,1.67
2023-12-23T08:36:01.596Z,1.40
2023-12-23T08:38:05.285Z,1.53
2023-12-23T08:40:09.777Z,1.43
2023-12-23T08:42:12.869Z,1.83
2023-12-23T08:44:16.481Z,1.47
2023-12-23T08:46:19.733Z,1.50
2023-12-23T08:48:22.962Z,1.77
2023-12-23T08:50:26.625Z,1.47
2023-12-23T08:52:28.925Z,1.30
2023-12-23T08:54:32.149Z,1.77
2023-12-23T08:56:36.590Z,1.50
2023-12-23T08:58:39.740Z,1.43
2023-12-23T09:00:42.889Z,1.40
2023-12-23T09:02:45.071Z,1.30
2023-12-23T09:04:48.221Z,1.07
2023-12-23T09:06:51.331Z,1.07
2023-12-23T09:08:58.384Z,2.23
2023-12-23T09:11:04.951Z,1.03
2023-12-23T09:13:09.742Z,1.00
2023-12-23T09:15:12.880Z,0.70
2023-12-23T09:17:16.022Z,0.83
2023-12-23T09:19:19.323Z,0.80
2023-12-23T09:21:22.643Z,0.80
2023-12-23T09:23:24.862Z,0.80
2023-12-23T09:25:28.109Z,0.80
2023-12-23T09:27:32.118Z,1.00
2023-12-23T09:29:36.555Z,1.07
2023-12-23T09:31:39.672Z,0.70
2023-12-23T09:33:42.870Z,0.80
2023-12-23T09:35:45.071Z,0.60
2023-12-23T09:37:48.415Z,0.80
2023-12-23T09:39:50.859Z,0.83
2023-12-23T09:41:55.707Z,0.93
2023-12-23T09:43:59.020Z,0.90
2023-12-23T09:46:04.579Z,0.80
2023-12-23T09:48:08.196Z,1.10
2023-12-23T09:50:11.413Z,1.30
2023-12-23T09:52:15.243Z,0.77
2023-12-23T09:54:22.230Z,0.80
2023-12-23T09:56:25.992Z,0.77
2023-12-23T09:58:28.273Z,0.73
2023-12-23T10:00:31.374Z,2.53
2023-12-23T10:02:35.240Z,0.97
2023-12-23T10:04:38.355Z,4.23
2023-12-23T10:06:41.533Z,1.00
2023-12-23T10:08:44.845Z,1.20
2023-12-23T10:10:48.784Z,1.10
2023-12-23T10:12:52.215Z,1.20
2023-12-23T10:14:55.515Z,1.13
2023-12-23T10:16:58.755Z,2.83
2023-12-23T10:19:03.619Z,2.53
2023-12-23T10:21:05.940Z,0.90
2023-12-23T10:23:10.491Z,0.70
2023-12-23T10:25:13.657Z,0.90
2023-12-23T10:27:17.972Z,1.07
2023-12-23T10:29:22.256Z,1.30
2023-12-23T10:31:27.296Z,1.37
2023-12-23T10:33:31.620Z,5.30
2023-12-23T10:35:39.414Z,2.10
2023-12-23T10:37:43.278Z,4.40
2023-12-23T10:39:48.172Z,2.53
2023-12-23T10:41:54.230Z,0.97
2023-12-23T10:43:57.629Z,2.00
2023-12-23T10:46:02.604Z,1.10
2023-12-23T10:48:06.287Z,2.37
2023-12-23T10:50:10.427Z,7.23
2023-12-23T10:52:15.157Z,3.60
2023-12-23T10:54:19.402Z,2.50
2023-12-23T10:56:22.966Z,5.80
2023-12-23T10:58:27.768Z,1.37
2023-12-23T11:00:30.919Z,1.80
2023-12-23T11:02:36.025Z,2.23
2023-12-23T11:04:38.687Z,1.90
2023-12-23T11:06:43.395Z,2.23
2023-12-23T11:08:48.027Z,2.50
2023-12-23T11:10:52.446Z,2.13
2023-12-23T11:12:55.900Z,1.10
2023-12-23T11:15:00.669Z,2.20
2023-12-23T11:17:03.776Z,1.63
2023-12-23T11:19:07.377Z,2.33
2023-12-23T11:21:17.377Z,3.40
2023-12-23T11:23:36.522Z,5.87
2023-12-23T11:25:43.659Z,3.97
2023-12-23T11:27:48.187Z,2.53
2023-12-23T11:29:51.622Z,2.30
2023-12-23T11:32:11.440Z,2.17
2023-12-23T11:34:15.610Z,2.63
2023-12-23T11:36:19.836Z,1.43
2023-12-23T11:38:22.031Z,2.00
2023-12-23T11:40:25.206Z,1.23
2023-12-23T11:42:29.640Z,1.20
2023-12-23T11:44:34.232Z,1.50
2023-12-23T11:46:37.684Z,1.40
2023-12-23T11:48:41.030Z,1.00
2023-12-23T11:50:44.547Z,1.10
2023-12-23T11:52:47.359Z,1.23
2023-12-23T11:54:51.099Z,2.10
2023-12-23T11:56:54.231Z,1.20
2023-12-23T11:59:01.872Z,1.67
2023-12-23T12:01:05.398Z,1.70
2023-12-23T12:03:10.077Z,1.40
2023-12-23T12:05:13.379Z,1.10
2023-12-23T12:07:16.979Z,1.20
2023-12-23T12:09:20.309Z,1.20
2023-12-23T12:11:25.871Z,1.13
2023-12-23T12:13:29.110Z,1.00
2023-12-23T12:15:33.576Z,1.20
2023-12-23T12:17:36.971Z,1.00
2023-12-23T12:19:40.180Z,1.10
2023-12-23T12:21:44.460Z,1.10
2023-12-23T12:23:47.866Z,0.80
2023-12-23T12:25:50.190Z,4.77
2023-12-23T12:27:53.436Z,2.07
2023-12-23T12:29:55.658Z,1.73
2023-12-23T12:32:00.372Z,1.23
2023-12-23T12:34:03.688Z,1.07
2023-12-23T12:36:09.283Z,1.47
2023-12-23T12:38:19.793Z,4.13
2023-12-23T12:40:26.649Z,1.40
2023-12-23T12:42:29.773Z,0.90
2023-12-23T12:44:34.995Z,1.43
2023-12-23T12:46:38.799Z,1.43
2023-12-23T12:48:43.420Z,1.10
2023-12-23T12:50:47.950Z,2.30
2023-12-23T12:52:51.188Z,1.00
2023-12-23T12:54:54.523Z,2.50
2023-12-23T12:57:00.232Z,3.30
2023-12-23T12:59:03.994Z,3.43
2023-12-23T13:01:08.175Z,1.70
2023-12-23T13:03:12.281Z,3.67
2023-12-23T13:05:18.058Z,1.80
2023-12-23T13:07:21.893Z,2.43
2023-12-23T13:09:24.112Z,1.77
2023-12-23T13:11:27.358Z,1.10
2023-12-23T13:13:30.562Z,1.80
2023-12-23T13:15:34.842Z,2.03
2023-12-23T13:17:38.074Z,1.90
2023-12-23T13:19:41.332Z,1.00
2023-12-23T13:21:44.883Z,0.90
2023-12-23T13:23:49.249Z,1.40
2023-12-23T13:25:52.447Z,0.97
2023-12-23T13:27:54.583Z,1.00
2023-12-23T13:29:57.742Z,0.97
2023-12-23T13:32:00.870Z,0.83
2023-12-23T13:34:04.656Z,1.10
2023-12-23T13:36:08.480Z,0.67
2023-12-23T13:38:13.569Z,0.90
2023-12-23T13:40:16.722Z,1.00
2023-12-23T13:42:20.723Z,1.03
2023-12-23T13:44:23.966Z,0.90
2023-12-23T13:46:27.130Z,0.93
2023-12-23T13:48:30.367Z,0.95
2023-12-23T13:50:33.677Z,1.00
2023-12-23T13:52:37.119Z,1.10
2023-12-23T13:54:41.738Z,1.10
2023-12-23T13:56:43.944Z,1.10
2023-12-23T13:58:47.047Z,0.95
2023-12-23T14:00:51.220Z,0.88
2023-12-23T14:02:54.678Z,1.10
2023-12-23T14:04:57.958Z,0.90
2023-12-23T14:07:00.153Z,1.07
2023-12-23T14:09:04.463Z,0.97
2023-12-23T14:11:08.012Z,1.10
2023-12-23T14:13:11.257Z,1.30
2023-12-23T14:15:14.815Z,0.80
2023-12-23T14:17:17.127Z,1.08
2023-12-23T14:19:20.412Z,0.88
2023-12-23T14:21:23.508Z,2.33
2023-12-23T14:23:26.659Z,1.30
2023-12-23T14:25:29.766Z,1.13
2023-12-23T14:27:34.196Z,1.00
2023-12-23T14:29:37.334Z,1.90
2023-12-23T14:31:40.726Z,1.75
2023-12-23T14:33:44.138Z,1.90
2023-12-23T14:35:48.657Z,5.97
2023-12-23T14:37:51.828Z,1.35
2023-12-23T14:39:55.253Z,2.35
2023-12-23T14:41:58.625Z,2.00
2023-12-23T14:44:03.207Z,1.13
2023-12-23T14:46:06.585Z,2.00
2023-12-23T14:48:09.953Z,1.50
2023-12-23T14:52:19.951Z,2.30
2023-12-23T14:54:23.099Z,1.40
2023-12-23T14:56:26.301Z,1.20
2023-12-23T14:58:28.653Z,1.83
2023-12-23T15:00:34.671Z,2.20
2023-12-23T15:02:37.980Z,2.67
2023-12-23T15:04:42.184Z,1.33
2023-12-23T15:06:48.260Z,2.40
2023-12-23T15:08:51.392Z,1.47
2023-12-23T15:10:54.522Z,1.92
2023-12-23T15:12:58.089Z,1.60
2023-12-23T15:15:01.222Z,3.40
2023-12-23T15:17:06.013Z,1.67
2023-12-23T15:19:08.309Z,1.20
2023-12-23T15:21:11.485Z,1.70
2023-12-23T15:23:15.194Z,1.33
2023-12-23T15:25:18.351Z,1.80
2023-12-23T15:27:21.510Z,0.90
2023-12-23T15:29:24.713Z,3.15
2023-12-23T15:31:26.896Z,3.30
2023-12-23T15:33:31.935Z,3.20
2023-12-23T15:35:35.279Z,1.77
2023-12-23T15:37:38.470Z,2.90
2023-12-23T15:39:40.650Z,1.90
2023-12-23T15:41:43.832Z,4.50
2023-12-23T15:43:47.051Z,1.90
2023-12-23T15:45:50.281Z,3.07
2023-12-23T15:47:53.602Z,1.70
2023-12-23T15:49:59.648Z,6.60
2023-12-23T15:52:02.771Z,5.83
2023-12-23T15:54:07.386Z,1.90
2023-12-23T15:56:10.708Z,2.83
2023-12-23T15:58:12.852Z,1.70
2023-12-23T16:00:16.550Z,1.40
2023-12-23T16:02:19.748Z,1.27
2023-12-23T16:04:22.931Z,1.20
2023-12-23T16:06:26.588Z,1.53
2023-12-23T16:08:31.461Z,1.70
2023-12-23T16:10:34.598Z,2.00
2023-12-23T16:12:37.885Z,2.00
2023-12-23T16:14:42.206Z,1.30
2023-12-23T16:16:45.473Z,1.60
2023-12-23T16:18:48.721Z,1.40
2023-12-23T16:20:53.181Z,1.20
2023-12-23T16:22:58.105Z,2.00
2023-12-23T16:25:00.363Z,1.50
2023-12-23T16:27:03.555Z,1.17
2023-12-23T16:29:05.855Z,1.37
2023-12-23T16:31:09.077Z,1.47
2023-12-23T16:33:12.348Z,1.50
2023-12-23T16:35:15.588Z,2.10
2023-12-23T16:37:20.948Z,1.70
2023-12-23T16:39:26.653Z,1.37
2023-12-23T16:41:29.814Z,1.90
2023-12-23T16:43:32.048Z,1.30
2023-12-23T16:45:35.135Z,1.77
2023-12-23T16:47:38.345Z,1.43
2023-12-23T16:49:42.565Z,1.80
2023-12-23T16:51:45.920Z,1.43
2023-12-23T16:53:48.061Z,1.53
2023-12-23T16:55:52.659Z,1.53
2023-12-23T16:57:56.139Z,1.27
2023-12-23T16:59:58.324Z,1.60
2023-12-23T17:02:02.299Z,1.47
2023-12-23T17:04:05.501Z,1.37
2023-12-23T17:06:09.045Z,1.37
2023-12-23T17:08:12.259Z,1.20
2023-12-23T17:10:14.538Z,1.50
2023-12-23T17:12:18.973Z,1.50
2023-12-23T17:14:21.167Z,1.20
2023-12-23T17:16:24.313Z,1.40
2023-12-23T17:18:27.503Z,1.50
2023-12-23T17:20:30.821Z,1.70
2023-12-23T17:22:37.483Z,1.80
2023-12-23T17:24:40.584Z,1.40
2023-12-23T17:26:44.150Z,1.30
2023-12-23T17:28:48.672Z,1.57
2023-12-23T17:30:51.877Z,1.33
2023-12-23T17:32:56.461Z,1.53
2023-12-23T17:35:00.077Z,1.83
2023-12-23T17:37:03.218Z,1.40
2023-12-23T17:39:06.349Z,1.70
2023-12-23T17:41:12.484Z,1.50
2023-12-23T17:43:14.891Z,2.03
2023-12-23T17:45:19.432Z,1.30
2023-12-23T17:47:23.778Z,1.50
2023-12-23T17:49:28.421Z,1.50
2023-12-23T17:51:30.805Z,1.47
2023-12-23T17:53:36.123Z,1.53
2023-12-23T17:55:39.484Z,1.30
2023-12-23T17:57:43.742Z,1.70
2023-12-23T17:59:46.829Z,1.45
2023-12-23T18:01:51.299Z,1.30
2023-12-23T18:03:54.570Z,1.57
2023-12-23T18:05:57.776Z,1.50
2023-12-23T18:07:59.977Z,1.40
2023-12-23T18:10:03.172Z,1.50
2023-12-23T18:12:06.730Z,1.80
2023-12-23T18:14:09.984Z,1.23
2023-12-23T18:16:13.145Z,1.60
2023-12-23T18:18:16.793Z,1.00
2023-12-23T18:20:20.140Z,1.27
2023-12-23T18:22:23.341Z,1.27
2023-12-23T18:24:26.516Z,1.00
2023-12-23T18:26:30.270Z,1.30
2023-12-23T18:28:33.759Z,1.40
2023-12-23T18:30:36.944Z,1.00
2023-12-23T18:32:39.350Z,1.20
2023-12-23T18:34:44.011Z,1.20
2023-12-23T18:36:47.158Z,1.47
2023-12-23T18:38:50.274Z,1.20
2023-12-23T18:40:53.477Z,1.10
2023-12-23T18:42:59.940Z,1.25
2023-12-23T18:45:03.170Z,1.30
2023-12-23T18:47:06.535Z,0.97
2023-12-23T18:49:08.804Z,1.20
2023-12-23T18:51:13.296Z,1.00
2023-12-23T18:53:17.512Z,1.23
2023-12-23T18:55:20.682Z,1.08
2023-12-23T18:57:24.228Z,1.50
2023-12-23T18:59:29.486Z,1.42
2023-12-23T19:01:32.081Z,1.20
2023-12-23T19:03:35.235Z,1.10
2023-12-23T19:05:40.874Z,1.30
2023-12-23T19:07:45.494Z,1.17
2023-12-23T19:09:48.681Z,1.30
2023-12-23T19:11:50.853Z,1.30
2023-12-23T19:13:54.042Z,1.03
2023-12-23T19:15:57.281Z,1.20
2023-12-23T19:18:00.856Z,1.30
2023-12-23T19:20:03.980Z,1.35
2023-12-23T19:22:08.025Z,1.20
2023-12-23T19:24:14.202Z,0.95
2023-12-23T19:26:26.185Z,1.27
2023-12-23T19:28:30.831Z,1.00
2023-12-23T19:30:34.141Z,0.93
2023-12-23T19:32:41.101Z,0.80
2023-12-23T19:34:44.685Z,1.30
2023-12-23T19:36:47.828Z,1.00
2023-12-23T19:38:52.285Z,0.90
2023-12-23T19:40:56.964Z,1.07
2023-12-23T19:43:00.179Z,1.00
2023-12-23T19:45:03.340Z,1.23
2023-12-23T19:47:06.886Z,0.98
2023-12-23T19:49:10.181Z,1.00
2023-12-23T19:51:15.209Z,1.50
2023-12-23T19:53:17.453Z,1.10
2023-12-23T19:55:20.722Z,1.00
2023-12-23T19:57:25.216Z,1.00
2023-12-23T19:59:28.462Z,1.10
2023-12-23T20:01:31.708Z,1.40
2023-12-23T20:03:33.902Z,1.20
2023-12-23T20:05:38.326Z,1.00
2023-12-23T20:07:41.554Z,1.10
2023-12-23T20:09:44.713Z,0.90
2023-12-23T20:11:48.082Z,1.30
2023-12-23T20:13:52.675Z,0.90
2023-12-23T20:15:55.803Z,0.98
2023-12-23T20:18:00.871Z,0.90
2023-12-23T20:20:04.641Z,0.90
2023-12-23T20:22:06.864Z,1.02
2023-12-23T20:24:09.964Z,1.00
2023-12-23T20:26:12.239Z,0.87
2023-12-23T20:28:15.417Z,1.10
2023-12-23T20:30:20.736Z,1.27
2023-12-23T20:32:23.949Z,1.20
2023-12-23T20:34:27.157Z,0.60
2023-12-23T20:36:30.345Z,0.80
2023-12-23T20:38:33.543Z,0.80
2023-12-23T20:40:36.724Z,0.80
2023-12-23T20:42:40.968Z,0.82
2023-12-23T20:44:44.308Z,0.90
2023-12-23T20:46:49.131Z,0.80
2023-12-23T20:48:52.368Z,0.50
2023-12-23T20:50:56.589Z,1.00
2023-12-23T20:53:00.044Z,0.90
2023-12-23T20:55:03.602Z,1.00
2023-12-23T20:57:09.501Z,0.85
2023-12-23T20:59:12.959Z,0.83
2023-12-23T21:01:15.545Z,0.90
2023-12-23T21:03:20.130Z,0.70
2023-12-23T21:05:23.427Z,0.90
2023-12-23T21:07:25.747Z,0.80
2023-12-23T21:09:28.962Z,0.70
2023-12-23T21:11:32.234Z,0.43
2023-12-23T21:13:35.686Z,0.90
2023-12-23T21:15:38.839Z,0.83
2023-12-23T21:17:42.131Z,0.85
2023-12-23T21:19:46.816Z,1.08
2023-12-23T21:21:48.951Z,0.70
2023-12-23T21:23:52.095Z,1.05
2023-12-23T21:25:54.278Z,0.90
2023-12-23T21:27:57.423Z,0.87
2023-12-23T21:30:00.506Z,0.80
2023-12-23T21:32:04.140Z,0.55
2023-12-23T21:34:07.500Z,1.33
2023-12-23T21:36:12.133Z,0.98
2023-12-23T21:38:14.359Z,0.90
2023-12-23T21:40:17.757Z,0.90
2023-12-23T21:42:19.921Z,0.90
2023-12-23T21:44:23.029Z,0.88
2023-12-23T21:46:26.189Z,0.77
2023-12-23T21:48:29.466Z,0.93
2023-12-23T21:50:34.075Z,0.80
2023-12-23T21:52:41.919Z,1.10
2023-12-23T21:54:45.393Z,0.95
2023-12-23T21:56:48.663Z,1.23
2023-12-23T21:58:51.814Z,0.95
2023-12-23T22:00:55.192Z,0.82
2023-12-23T22:02:58.537Z,0.83
2023-12-23T22:05:02.005Z,1.00
2023-12-23T22:07:05.343Z,0.77
2023-12-23T22:09:09.846Z,0.82
2023-12-23T22:11:12.027Z,0.70
2023-12-23T22:13:15.750Z,1.15
2023-12-23T22:15:18.906Z,1.00
2023-12-23T22:17:22.165Z,0.97
2023-12-23T22:19:25.395Z,0.90
2023-12-23T22:21:28.563Z,0.80
2023-12-23T22:23:30.741Z,0.67
2023-12-23T22:25:35.588Z,0.90
2023-12-23T22:27:37.881Z,0.87
2023-12-23T22:29:42.226Z,0.80
2023-12-23T22:31:45.687Z,0.70
2023-12-23T22:33:47.929Z,0.70
2023-12-23T22:35:51.206Z,0.80
2023-12-23T22:37:54.447Z,0.60
2023-12-23T22:39:58.763Z,0.70
2023-12-23T22:42:03.424Z,0.77
2023-12-23T22:44:07.277Z,0.80
2023-12-23T22:46:10.704Z,0.80
2023-12-23T22:48:13.981Z,1.00
2023-12-23T22:50:17.187Z,0.60
2023-12-23T22:52:19.821Z,0.80
2023-12-23T22:54:23.444Z,0.70
2023-12-23T22:56:26.561Z,0.80
2023-12-23T22:58:30.762Z,0.80
2023-12-23T23:00:35.697Z,0.60
2023-12-23T23:02:38.883Z,0.67
2023-12-23T23:04:42.035Z,0.65
2023-12-23T23:06:45.172Z,0.50
2023-12-23T23:08:47.605Z,0.90
2023-12-23T23:10:50.707Z,0.57
2023-12-23T23:12:54.285Z,0.77
2023-12-23T23:14:58.929Z,0.50
2023-12-23T23:17:02.156Z,0.67
2023-12-23T23:19:05.624Z,0.65
2023-12-23T23:21:09.048Z,0.60
2023-12-23T23:23:11.256Z,0.45
2023-12-23T23:25:15.196Z,0.43
2023-12-23T23:27:18.351Z,0.70
2023-12-23T23:29:21.468Z,0.55
2023-12-23T23:31:26.000Z,0.50
2023-12-23T23:33:30.065Z,0.70
2023-12-23T23:35:34.234Z,0.70
2023-12-23T23:37:36.499Z,0.80
2023-12-23T23:39:40.212Z,0.50
2023-12-23T23:41:42.374Z,0.80
2023-12-23T23:43:45.690Z,0.70
2023-12-23T23:45:49.099Z,0.60
2023-12-23T23:47:53.893Z,0.70
2023-12-23T23:49:57.165Z,0.40
2023-12-23T23:52:00.533Z,0.60
2023-12-23T23:54:03.735Z,0.60
2023-12-23T23:56:10.017Z,0.50
2023-12-23T23:58:13.128Z,0.60
